Terminal Aerodrome Forecast
Issued by NWS Lake Charles, LA

Home | Current Version | Previous Version | Text Only | Print | Product List | Glossary On
Versions: 1 2 3 4 5 6 7 8 9 10 11 12 13 14 15
127
FTUS44 KLCH 291721
TAFBPT
TAF
KBPT 291721Z 2918/3018 19004KT P6SM VCTS FEW035 SCT050CB BKN250
      TEMPO 2918/2920 2SM TSRA
     FM292100 18004KT P6SM VCSH SCT050 SCT250
     FM300100 VRB03KT P6SM FEW250=

USA.gov is the U.S. government's official web portal to all federal, state and local government web resources and services.